Details From CYDQ - Dawson Creek
To CYOJ - High Level
Flight Number -
Tags Generated
Created
Modified
Stats Distance 199 nm / 369 km
Max Altitude 0 ft / 0 m
Waypoints 2
Social Downloads 1
Likes 0
Share VATSIM

Download

Looking for another format? Having issues loading an existing format? Contact us
Advertisement - Login to hide

Notes

Generated

Route

CYDQ CYOJ

ID Type Via Altitude Latitude Longitude Leg Dist Tot Dist Heading (true) Name
O CYDQ APT - 0 ft / 0 m 55.74111˚ -120.19361˚ - 0 nm - -
O CYOJ APT - 0 ft / 0 m 58.62750˚ -117.17056˚ 199 nm 199 nm 28° / 31° -

Altitude Profile

Advertisement - Login to hide

Weather


0- 5 10 15 20 25 30 35+ Temperature / ° C

Clouds and Precipitation
Forecast for 2017-12-16 12:00 UTC. Updated an hour ago

Ground ~20,000 ft ~40,000 ft Winds

CYDQ

Details ICAO CYDQ (YDQ)
Name DAWSON CREEK
Region Canada
Timezone America/Dawson_Creek (UTC-7.0)
Stats Elevation 2,148 ft / 655 m (AMSL)
Location 55.741667° -120.181525°
Runways 1
Magnetic Variation 17.292° E

METAR

CYDQ 161200Z AUTO 28005KT 250V050 9SM CLR M03/M08 A2987 RMK SLP150

Decode

TAF

Not found

Departure Runways

ID Width Length Bearing (true) Bearing (mag) Surface Threshold Offset Overrun Length
06 150 ft / 46 m 4,982 ft / 1,519 m 85.32° 68.03° Asphalt 0 ft / 0 m 0 ft / 0 m
24 150 ft / 46 m 4,982 ft / 1,519 m 265.34° 248.05° Asphalt 0 ft / 0 m 0 ft / 0 m

CYOJ

Details ICAO CYOJ (YOJ)
Name HIGH LEVEL
Region Canada
Timezone America/Edmonton (UTC-7.0)
Stats Elevation 1,110 ft / 338 m (AMSL)
Location 58.621387° -117.164725°
Runways 1
Magnetic Variation 17.041° E

METAR

CYOJ 161200Z AUTO 33004KT 290V010 9SM OVC018 M06/M08 A2977 RMK SLP104

Decode

TAF

TAF CYOJ 160639Z 1607/1619 34006KT P6SM OVC015 TEMPO 1607/1617 4SM -SN BR OVC008 FM161700 14006KT P6SM SCT008 TEMPO 1617/1619 BKN008 RMK FCST BASED ON AUTO OBS. NXT FCST BY 161300Z

Decode

Destination Runways

ID Width Length Bearing (true) Bearing (mag) Surface Threshold Offset Overrun Length
13 150 ft / 46 m 4,982 ft / 1,519 m 153.56° 136.52° Asphalt 0 ft / 0 m 0 ft / 0 m
31 150 ft / 46 m 4,982 ft / 1,519 m 333.57° 316.53° Asphalt 0 ft / 0 m 0 ft / 0 m